sensor_id;sensor_type;location;lat;lon;timestamp;pressure;altitude;pressure_sealevel;temperature;humidity
67818;BME280;54614;47.576;7.524;2023-09-08T00:00:57;98669.91;;;26.14;53.39
67818;BME280;54614;47.576;7.524;2023-09-08T00:03:23;98653.72;;;26.14;53.17
67818;BME280;54614;47.576;7.524;2023-09-08T00:05:49;98653.94;;;26.13;53.19
67818;BME280;54614;47.576;7.524;2023-09-08T00:08:15;98654.78;;;26.13;53.24
67818;BME280;54614;47.576;7.524;2023-09-08T00:10:41;98660.38;;;26.12;53.18
67818;BME280;54614;47.576;7.524;2023-09-08T00:13:07;98657.47;;;26.13;53.40
67818;BME280;54614;47.576;7.524;2023-09-08T00:15:36;98660.16;;;26.13;53.31
67818;BME280;54614;47.576;7.524;2023-09-08T00:18:03;98653.50;;;26.16;53.17
67818;BME280;54614;47.576;7.524;2023-09-08T00:20:28;98657.03;;;26.16;53.23
67818;BME280;54614;47.576;7.524;2023-09-08T00:22:54;98651.63;;;26.16;53.08
67818;BME280;54614;47.576;7.524;2023-09-08T00:25:20;98654.09;;;26.18;53.25
67818;BME280;54614;47.576;7.524;2023-09-08T00:27:46;98655.38;;;26.15;53.27
67818;BME280;54614;47.576;7.524;2023-09-08T00:30:12;98652.69;;;26.15;53.09
67818;BME280;54614;47.576;7.524;2023-09-08T00:32:38;98651.25;;;26.13;53.35
67818;BME280;54614;47.576;7.524;2023-09-08T00:35:06;98659.56;;;26.11;53.22
67818;BME280;54614;47.576;7.524;2023-09-08T00:37:33;98647.94;;;26.11;53.32
67818;BME280;54614;47.576;7.524;2023-09-08T00:39:59;98660.38;;;26.12;53.26
67818;BME280;54614;47.576;7.524;2023-09-08T00:42:25;98648.78;;;26.11;53.06
67818;BME280;54614;47.576;7.524;2023-09-08T00:44:50;98649.59;;;26.12;53.16
67818;BME280;54614;47.576;7.524;2023-09-08T00:47:16;98650.63;;;26.11;53.07
67818;BME280;54614;47.576;7.524;2023-09-08T00:49:43;98649.81;;;26.10;53.22
67818;BME280;54614;47.576;7.524;2023-09-08T00:52:09;98648.16;;;26.09;53.27
67818;BME280;54614;47.576;7.524;2023-09-08T00:54:34;98651.69;;;26.10;53.11
67818;BME280;54614;47.576;7.524;2023-09-08T00:57:02;98650.44;;;26.12;53.09
67818;BME280;54614;47.576;7.524;2023-09-08T00:59:33;98642.56;;;26.11;53.13
67818;BME280;54614;47.576;7.524;2023-09-08T01:02:00;98648.56;;;26.13;53.15
67818;BME280;54614;47.576;7.524;2023-09-08T01:04:26;98651.03;;;26.14;53.03
67818;BME280;54614;47.576;7.524;2023-09-08T01:06:53;98647.50;;;26.14;52.90
67818;BME280;54614;47.576;7.524;2023-09-08T01:09:20;98652.50;;;26.10;53.20
67818;BME280;54614;47.576;7.524;2023-09-08T01:11:46;98642.56;;;26.11;53.04
67818;BME280;54614;47.576;7.524;2023-09-08T01:14:13;98645.47;;;26.09;53.40
67818;BME280;54614;47.576;7.524;2023-09-08T01:16:41;98650.03;;;26.09;53.13
67818;BME280;54614;47.576;7.524;2023-09-08T01:19:13;98650.88;;;26.09;53.09
67818;BME280;54614;47.576;7.524;2023-09-08T01:22:23;98650.03;;;26.09;53.18
67818;BME280;54614;47.576;7.524;2023-09-08T01:25:26;98652.94;;;26.07;53.25
67818;BME280;54614;47.576;7.524;2023-09-08T01:27:55;98651.69;;;26.10;53.00
67818;BME280;54614;47.576;7.524;2023-09-08T01:30:25;98652.94;;;26.07;53.12
67818;BME280;54614;47.576;7.524;2023-09-08T01:32:54;98651.09;;;26.08;53.20
67818;BME280;54614;47.576;7.524;2023-09-08T01:35:20;98648.38;;;26.08;53.01
67818;BME280;54614;47.576;7.524;2023-09-08T01:37:48;98648.38;;;26.08;53.20
67818;BME280;54614;47.576;7.524;2023-09-08T01:40:15;98652.13;;;26.07;53.15
67818;BME280;54614;47.576;7.524;2023-09-08T01:42:41;98646.91;;;26.12;52.85
67818;BME280;54614;47.576;7.524;2023-09-08T01:45:08;98647.50;;;26.14;52.83
67818;BME280;54614;47.576;7.524;2023-09-08T01:47:34;98650.88;;;26.09;52.86
67818;BME280;54614;47.576;7.524;2023-09-08T01:50:01;98645.47;;;26.09;53.05
67818;BME280;54614;47.576;7.524;2023-09-08T01:52:27;98644.22;;;26.12;52.93
67818;BME280;54614;47.576;7.524;2023-09-08T01:54:53;98641.50;;;26.12;52.73
67818;BME280;54614;47.576;7.524;2023-09-08T01:57:19;98640.91;;;26.10;52.92
67818;BME280;54614;47.576;7.524;2023-09-08T01:59:44;98636.78;;;26.07;53.03
67818;BME280;54614;47.576;7.524;2023-09-08T02:02:11;98640.31;;;26.08;52.84
67818;BME280;54614;47.576;7.524;2023-09-08T02:04:37;98647.34;;;26.09;52.94
67818;BME280;54614;47.576;7.524;2023-09-08T02:07:03;98636.78;;;26.07;53.05
67818;BME280;54614;47.576;7.524;2023-09-08T02:09:35;98641.94;;;26.09;53.06
67818;BME280;54614;47.576;7.524;2023-09-08T02:12:02;98642.16;;;26.07;53.07
67818;BME280;54614;47.576;7.524;2023-09-08T02:14:29;98636.34;;;26.10;52.90
67818;BME280;54614;47.576;7.524;2023-09-08T02:16:55;98629.75;;;26.06;53.07
67818;BME280;54614;47.576;7.524;2023-09-08T02:19:22;98639.47;;;26.07;52.96
67818;BME280;54614;47.576;7.524;2023-09-08T02:21:48;98636.19;;;26.05;53.15
67818;BME280;54614;47.576;7.524;2023-09-08T02:24:14;98637.81;;;26.06;52.94
67818;BME280;54614;47.576;7.524;2023-09-08T02:26:40;98642.16;;;26.07;52.83
67818;BME280;54614;47.576;7.524;2023-09-08T02:29:06;98643.00;;;26.08;52.89
67818;BME280;54614;47.576;7.524;2023-09-08T02:31:33;98637.59;;;26.08;52.92
67818;BME280;54614;47.576;7.524;2023-09-08T02:33:59;98640.53;;;26.06;52.84
67818;BME280;54614;47.576;7.524;2023-09-08T02:36:25;98638.03;;;26.05;53.20
67818;BME280;54614;47.576;7.524;2023-09-08T02:38:56;98638.88;;;26.05;53.09
67818;BME280;54614;47.576;7.524;2023-09-08T02:41:23;98640.75;;;26.05;53.01
67818;BME280;54614;47.576;7.524;2023-09-08T02:43:49;98647.19;;;26.04;53.08
67818;BME280;54614;47.576;7.524;2023-09-08T02:46:15;98649.66;;;26.05;52.90
67818;BME280;54614;47.576;7.524;2023-09-08T02:48:41;98645.09;;;26.06;52.93
67818;BME280;54614;47.576;7.524;2023-09-08T02:51:07;98654.00;;;26.06;52.84
67818;BME280;54614;47.576;7.524;2023-09-08T02:53:33;98643.22;;;26.06;52.77
67818;BME280;54614;47.576;7.524;2023-09-08T02:55:59;98638.88;;;26.05;52.94
67818;BME280;54614;47.576;7.524;2023-09-08T02:58:26;98638.88;;;26.05;52.88
67818;BME280;54614;47.576;7.524;2023-09-08T03:00:52;98637.22;;;26.04;53.04
67818;BME280;54614;47.576;7.524;2023-09-08T03:03:19;98636.19;;;26.05;52.86
67818;BME280;54614;47.576;7.524;2023-09-08T03:05:45;98633.47;;;26.05;52.96
67818;BME280;54614;47.576;7.524;2023-09-08T03:08:11;98640.75;;;26.05;52.82
67818;BME280;54614;47.576;7.524;2023-09-08T03:10:37;98628.09;;;26.05;53.06
67818;BME280;54614;47.576;7.524;2023-09-08T03:13:04;98642.38;;;26.06;52.81
67818;BME280;54614;47.576;7.524;2023-09-08T03:15:30;98637.81;;;26.06;53.01
67818;BME280;54614;47.576;7.524;2023-09-08T03:17:57;98639.69;;;26.06;52.84
67818;BME280;54614;47.576;7.524;2023-09-08T03:20:27;98637.22;;;26.04;52.86
67818;BME280;54614;47.576;7.524;2023-09-08T03:22:54;98637.22;;;26.04;52.72
67818;BME280;54614;47.576;7.524;2023-09-08T03:25:21;98647.41;;;26.02;53.02
67818;BME280;54614;47.576;7.524;2023-09-08T03:27:47;98647.19;;;26.04;53.00
67818;BME280;54614;47.576;7.524;2023-09-08T03:30:13;98639.91;;;26.04;52.90
67818;BME280;54614;47.576;7.524;2023-09-08T03:32:38;98647.19;;;26.04;52.83
67818;BME280;54614;47.576;7.524;2023-09-08T03:35:05;98640.53;;;26.06;52.91
67818;BME280;54614;47.576;7.524;2023-09-08T03:37:36;98639.09;;;26.04;52.85
67818;BME280;54614;47.576;7.524;2023-09-08T03:40:02;98631.00;;;26.04;52.72
67818;BME280;54614;47.576;7.524;2023-09-08T03:42:31;98631.00;;;26.04;52.92
67818;BME280;54614;47.576;7.524;2023-09-08T03:44:56;98638.44;;;26.08;52.70
67818;BME280;54614;47.576;7.524;2023-09-08T03:47:22;98632.03;;;26.02;52.86
67818;BME280;54614;47.576;7.524;2023-09-08T03:49:48;98633.91;;;26.02;52.83
67818;BME280;54614;47.576;7.524;2023-09-08T03:52:13;98635.56;;;26.03;52.73
67818;BME280;54614;47.576;7.524;2023-09-08T03:54:39;98646.56;;;26.01;52.75
67818;BME280;54614;47.576;7.524;2023-09-08T03:57:05;98637.44;;;26.02;52.89
67818;BME280;54614;47.576;7.524;2023-09-08T03:59:31;98643.44;;;26.05;52.73
67818;BME280;54614;47.576;7.524;2023-09-08T04:01:57;98634.53;;;26.04;52.84
67818;BME280;54614;47.576;7.524;2023-09-08T04:04:22;98646.34;;;26.03;52.74
67818;BME280;54614;47.576;7.524;2023-09-08T04:06:48;98643.88;;;26.01;52.70
67818;BME280;54614;47.576;7.524;2023-09-08T04:09:14;98646.34;;;26.03;52.86
67818;BME280;54614;47.576;7.524;2023-09-08T04:11:40;98636.63;;;26.02;52.77
67818;BME280;54614;47.576;7.524;2023-09-08T04:14:06;98646.56;;;26.01;52.84
67818;BME280;54614;47.576;7.524;2023-09-08T04:16:31;98647.63;;;26.00;54.19
67818;BME280;54614;47.576;7.524;2023-09-08T04:18:57;98652.50;;;26.10;54.38
67818;BME280;54614;47.576;7.524;2023-09-08T04:21:23;98652.47;;;26.17;54.83
67818;BME280;54614;47.576;7.524;2023-09-08T04:23:48;98645.81;;;26.19;54.41
67818;BME280;54614;47.576;7.524;2023-09-08T04:26:14;98654.72;;;26.20;53.97
67818;BME280;54614;47.576;7.524;2023-09-08T04:28:40;98648.66;;;26.24;53.02
67818;BME280;54614;47.576;7.524;2023-09-08T04:31:05;98656.16;;;26.22;52.66
67818;BME280;54614;47.576;7.524;2023-09-08T04:33:31;98650.16;;;26.20;52.98
67818;BME280;54614;47.576;7.524;2023-09-08T04:35:57;98654.34;;;26.16;52.91
67818;BME280;54614;47.576;7.524;2023-09-08T04:38:23;98651.03;;;26.14;52.79
67818;BME280;54614;47.576;7.524;2023-09-08T04:40:48;98657.31;;;26.08;53.55
67818;BME280;54614;47.576;7.524;2023-09-08T04:43:14;98661.66;;;26.09;53.07
67818;BME280;54614;47.576;7.524;2023-09-08T04:45:40;98644.03;;;26.07;53.03
67818;BME280;54614;47.576;7.524;2023-09-08T04:48:06;98660.44;;;26.05;55.17
67818;BME280;54614;47.576;7.524;2023-09-08T04:50:32;98656.63;;;26.13;54.19
67818;BME280;54614;47.576;7.524;2023-09-08T04:52:58;98666.72;;;25.92;54.36
67818;BME280;54614;47.576;7.524;2023-09-08T04:55:24;98669.88;;;25.00;54.08
67818;BME280;54614;47.576;7.524;2023-09-08T04:57:50;98667.06;;;24.49;55.37
67818;BME280;54614;47.576;7.524;2023-09-08T05:00:16;98673.25;;;24.16;56.33
67818;BME280;54614;47.576;7.524;2023-09-08T05:02:42;98673.84;;;24.71;54.49
67818;BME280;54614;47.576;7.524;2023-09-08T05:05:08;98671.81;;;24.53;54.22
67818;BME280;54614;47.576;7.524;2023-09-08T05:07:33;98679.25;;;24.25;54.58
67818;BME280;54614;47.576;7.524;2023-09-08T05:09:59;98676.78;;;24.03;55.22
67818;BME280;54614;47.576;7.524;2023-09-08T05:12:25;98676.97;;;23.89;55.24
67818;BME280;54614;47.576;7.524;2023-09-08T05:14:50;98668.28;;;23.87;55.22
67818;BME280;54614;47.576;7.524;2023-09-08T05:17:23;98677.59;;;24.04;54.91
67818;BME280;54614;47.576;7.524;2023-09-08T05:19:49;98674.91;;;24.24;54.18
67818;BME280;54614;47.576;7.524;2023-09-08T05:22:15;98671.41;;;24.10;55.09
67818;BME280;54614;47.576;7.524;2023-09-08T05:24:40;98668.91;;;24.08;54.92
67818;BME280;54614;47.576;7.524;2023-09-08T05:27:06;98677.59;;;24.10;54.65
67818;BME280;54614;47.576;7.524;2023-09-08T05:29:32;98676.78;;;24.10;55.15
67818;BME280;54614;47.576;7.524;2023-09-08T05:31:57;98685.03;;;24.15;54.73
67818;BME280;54614;47.576;7.524;2023-09-08T05:34:23;98683.81;;;24.18;55.62
67818;BME280;54614;47.576;7.524;2023-09-08T05:36:49;98687.72;;;24.15;55.01
67818;BME280;54614;47.576;7.524;2023-09-08T05:39:15;98696.78;;;23.88;56.56
67818;BME280;54614;47.576;7.524;2023-09-08T05:41:43;98699.47;;;23.20;58.31
67818;BME280;54614;47.576;7.524;2023-09-08T05:44:09;98705.66;;;23.21;57.92
67818;BME280;54614;47.576;7.524;2023-09-08T05:46:34;98700.91;;;23.70;57.05
67818;BME280;54614;47.576;7.524;2023-09-08T05:49:00;98700.94;;;23.97;56.62
67818;BME280;54614;47.576;7.524;2023-09-08T05:51:26;98704.47;;;24.10;56.22
67818;BME280;54614;47.576;7.524;2023-09-08T05:53:52;98696.81;;;24.14;56.25
67818;BME280;54614;47.576;7.524;2023-09-08T05:56:19;98697.88;;;24.20;56.04
67818;BME280;54614;47.576;7.524;2023-09-08T05:58:47;98708.19;;;24.23;56.18
67818;BME280;54614;47.576;7.524;2023-09-08T06:01:15;98692.06;;;24.23;56.45
67818;BME280;54614;47.576;7.524;2023-09-08T06:03:41;98697.91;;;24.26;56.58
67818;BME280;54614;47.576;7.524;2023-09-08T06:06:07;98697.47;;;24.36;55.99
67818;BME280;54614;47.576;7.524;2023-09-08T06:08:32;98691.47;;;24.40;56.35
67818;BME280;54614;47.576;7.524;2023-09-08T06:10:58;98698.09;;;24.51;56.20
67818;BME280;54614;47.576;7.524;2023-09-08T06:13:24;98697.66;;;24.61;56.22
67818;BME280;54614;47.576;7.524;2023-09-08T06:15:51;98703.66;;;24.69;56.19
67818;BME280;54614;47.576;7.524;2023-09-08T06:18:17;98700.53;;;24.79;55.88
67818;BME280;54614;47.576;7.524;2023-09-08T06:20:46;98693.47;;;24.85;55.88
67818;BME280;54614;47.576;7.524;2023-09-08T06:23:13;98701.34;;;24.86;55.89
67818;BME280;54614;47.576;7.524;2023-09-08T06:25:39;98697.81;;;24.92;55.31
67818;BME280;54614;47.576;7.524;2023-09-08T06:28:06;98699.88;;;25.03;55.28
67818;BME280;54614;47.576;7.524;2023-09-08T06:30:31;98705.66;;;25.14;54.77
67818;BME280;54614;47.576;7.524;2023-09-08T06:32:57;98698.78;;;25.18;54.76
67818;BME280;54614;47.576;7.524;2023-09-08T06:35:23;98707.06;;;25.23;54.84
67818;BME280;54614;47.576;7.524;2023-09-08T06:37:49;98697.34;;;25.22;54.71
67818;BME280;54614;47.576;7.524;2023-09-08T06:40:14;98707.66;;;25.25;54.54
67818;BME280;54614;47.576;7.524;2023-09-08T06:42:40;98706.84;;;25.24;54.62
67818;BME280;54614;47.576;7.524;2023-09-08T06:45:07;98707.06;;;25.23;54.92
67818;BME280;54614;47.576;7.524;2023-09-08T06:47:33;98705.59;;;25.27;54.73
67818;BME280;54614;47.576;7.524;2023-09-08T06:49:58;98705.78;;;25.32;54.77
67818;BME280;54614;47.576;7.524;2023-09-08T06:52:24;98713.44;;;25.35;54.75
67818;BME280;54614;47.576;7.524;2023-09-08T06:54:50;98711.34;;;25.37;54.73
67818;BME280;54614;47.576;7.524;2023-09-08T06:57:18;98713.22;;;25.36;55.12
67818;BME280;54614;47.576;7.524;2023-09-08T06:59:47;98710.53;;;25.36;54.92
67818;BME280;54614;47.576;7.524;2023-09-08T07:02:13;98717.13;;;25.41;54.82
67818;BME280;54614;47.576;7.524;2023-09-08T07:04:38;98711.53;;;25.42;54.88
67818;BME280;54614;47.576;7.524;2023-09-08T07:07:04;98718.16;;;25.46;54.93
67818;BME280;54614;47.576;7.524;2023-09-08T07:09:37;98718.97;;;25.47;54.78
67818;BME280;54614;47.576;7.524;2023-09-08T07:12:06;98716.50;;;25.45;54.89
67818;BME280;54614;47.576;7.524;2023-09-08T07:14:32;98720.41;;;25.49;54.72
67818;BME280;54614;47.576;7.524;2023-09-08T07:16:58;98716.47;;;25.52;54.82
67818;BME280;54614;47.576;7.524;2023-09-08T07:19:25;98710.84;;;25.53;54.96
67818;BME280;54614;47.576;7.524;2023-09-08T07:21:51;98716.03;;;25.55;54.81
67818;BME280;54614;47.576;7.524;2023-09-08T07:24:17;98710.22;;;25.58;54.83
67818;BME280;54614;47.576;7.524;2023-09-08T07:26:43;98705.84;;;25.63;54.43
67818;BME280;54614;47.576;7.524;2023-09-08T07:29:08;98703.97;;;25.64;54.62
67818;BME280;54614;47.576;7.524;2023-09-08T07:31:34;98703.56;;;25.67;54.52
67818;BME280;54614;47.576;7.524;2023-09-08T07:34:00;98709.56;;;25.69;54.74
67818;BME280;54614;47.576;7.524;2023-09-08T07:36:26;98712.25;;;25.69;54.61
67818;BME280;54614;47.576;7.524;2023-09-08T07:38:52;98712.88;;;25.71;54.49
67818;BME280;54614;47.576;7.524;2023-09-08T07:41:17;98713.91;;;25.70;54.40
67818;BME280;54614;47.576;7.524;2023-09-08T07:43:43;98716.19;;;25.73;54.64
67818;BME280;54614;47.576;7.524;2023-09-08T07:46:11;98717.00;;;25.74;54.75
67818;BME280;54614;47.576;7.524;2023-09-08T07:48:37;98717.41;;;25.77;54.43
67818;BME280;54614;47.576;7.524;2023-09-08T07:51:03;98714.28;;;25.80;54.48
67818;BME280;54614;47.576;7.524;2023-09-08T07:53:28;98714.84;;;25.89;54.42
67818;BME280;54614;47.576;7.524;2023-09-08T07:55:54;98715.00;;;25.94;54.20
67818;BME280;54614;47.576;7.524;2023-09-08T07:58:21;98717.69;;;26.00;54.03
67818;BME280;54614;47.576;7.524;2023-09-08T08:00:47;98720.16;;;26.02;54.06
67818;BME280;54614;47.576;7.524;2023-09-08T08:03:13;98716.84;;;26.00;54.05
67818;BME280;54614;47.576;7.524;2023-09-08T08:05:38;98713.97;;;26.01;53.94
67818;BME280;54614;47.576;7.524;2023-09-08T08:08:04;98707.09;;;26.06;53.84
67818;BME280;54614;47.576;7.524;2023-09-08T08:10:30;98709.34;;;26.09;53.70
67818;BME280;54614;47.576;7.524;2023-09-08T08:12:56;98705.78;;;26.15;53.48
67818;BME280;54614;47.576;7.524;2023-09-08T08:15:37;98710.72;;;26.18;53.44
67818;BME280;54614;47.576;7.524;2023-09-08T08:18:05;98710.50;;;26.19;53.33
67818;BME280;54614;47.576;7.524;2023-09-08T08:20:31;98709.47;;;26.20;53.27
67818;BME280;54614;47.576;7.524;2023-09-08T08:23:01;98715.47;;;26.22;53.12
67818;BME280;54614;47.576;7.524;2023-09-08T08:25:27;98708.81;;;26.25;53.06
67818;BME280;54614;47.576;7.524;2023-09-08T08:27:53;98713.97;;;26.26;53.04
67818;BME280;54614;47.576;7.524;2023-09-08T08:30:19;98710.03;;;26.29;52.99
67818;BME280;54614;47.576;7.524;2023-09-08T08:32:45;98708.16;;;26.29;52.97
67818;BME280;54614;47.576;7.524;2023-09-08T08:35:11;98704.84;;;26.27;53.05
67818;BME280;54614;47.576;7.524;2023-09-08T08:37:40;98713.38;;;26.24;53.14
67818;BME280;54614;47.576;7.524;2023-09-08T08:40:07;98712.75;;;26.22;53.19
67818;BME280;54614;47.576;7.524;2023-09-08T08:42:34;98717.94;;;26.24;53.27
67818;BME280;54614;47.576;7.524;2023-09-08T08:45:00;98716.06;;;26.24;53.16
67818;BME280;54614;47.576;7.524;2023-09-08T08:47:28;98716.69;;;26.26;53.13
67818;BME280;54614;47.576;7.524;2023-09-08T08:49:58;98710.47;;;26.26;53.05
67818;BME280;54614;47.576;7.524;2023-09-08T08:52:26;98708.16;;;26.29;53.11
67818;BME280;54614;47.576;7.524;2023-09-08T08:54:53;98702.53;;;26.31;52.88
67818;BME280;54614;47.576;7.524;2023-09-08T08:57:20;98704.81;;;26.34;52.89
67818;BME280;54614;47.576;7.524;2023-09-08T08:59:47;98708.34;;;26.35;52.79
67818;BME280;54614;47.576;7.524;2023-09-08T09:02:15;98705.88;;;26.33;52.89
67818;BME280;54614;47.576;7.524;2023-09-08T09:04:41;98701.09;;;26.35;52.70
67818;BME280;54614;47.576;7.524;2023-09-08T09:07:08;98699.38;;;26.41;52.54
67818;BME280;54614;47.576;7.524;2023-09-08T09:09:34;98695.63;;;26.42;52.48
67818;BME280;54614;47.576;7.524;2023-09-08T09:12:00;98692.09;;;26.41;52.56
67818;BME280;54614;47.576;7.524;2023-09-08T09:14:28;98686.09;;;26.39;52.62
67818;BME280;54614;47.576;7.524;2023-09-08T09:16:56;98688.16;;;26.44;52.56
67818;BME280;54614;47.576;7.524;2023-09-08T09:19:23;98693.09;;;26.47;52.39
67818;BME280;54614;47.576;7.524;2023-09-08T09:21:58;98696.84;;;26.46;52.37
67818;BME280;54614;47.576;7.524;2023-09-08T09:24:41;98692.03;;;26.48;52.32
67818;BME280;54614;47.576;7.524;2023-09-08T09:27:10;98685.81;;;26.47;52.40
67818;BME280;54614;47.576;7.524;2023-09-08T09:29:51;98680.22;;;26.49;52.27
67818;BME280;54614;47.576;7.524;2023-09-08T09:32:23;98686.22;;;26.51;52.20
67818;BME280;54614;47.576;7.524;2023-09-08T09:34:52;98681.63;;;26.51;52.30
67818;BME280;54614;47.576;7.524;2023-09-08T09:37:23;98680.81;;;26.51;52.19
67818;BME280;54614;47.576;7.524;2023-09-08T09:39:50;98678.72;;;26.53;52.09
67818;BME280;54614;47.576;7.524;2023-09-08T09:42:17;98679.31;;;26.55;52.02
67818;BME280;54614;47.576;7.524;2023-09-08T09:44:43;98678.50;;;26.54;52.40
67818;BME280;54614;47.576;7.524;2023-09-08T09:47:10;98676.63;;;26.55;52.12
67818;BME280;54614;47.576;7.524;2023-09-08T09:49:48;98674.53;;;26.57;52.27
67818;BME280;54614;47.576;7.524;2023-09-08T09:52:21;98666.44;;;26.57;52.15
67818;BME280;54614;47.576;7.524;2023-09-08T09:54:49;98670.78;;;26.58;52.19
67818;BME280;54614;47.576;7.524;2023-09-08T09:57:21;98674.09;;;26.60;52.12
67818;BME280;54614;47.576;7.524;2023-09-08T09:59:47;98665.16;;;26.59;52.06
67818;BME280;54614;47.576;7.524;2023-09-08T10:02:18;98669.28;;;26.62;52.27
67818;BME280;54614;47.576;7.524;2023-09-08T10:04:48;98667.88;;;26.59;52.13
67818;BME280;54614;47.576;7.524;2023-09-08T10:07:18;98670.34;;;26.61;51.97
67818;BME280;54614;47.576;7.524;2023-09-08T10:09:44;98661.19;;;26.62;52.02
67818;BME280;54614;47.576;7.524;2023-09-08T10:12:14;98656.63;;;26.62;51.96
67818;BME280;54614;47.576;7.524;2023-09-08T10:14:44;98659.09;;;26.64;52.17
67818;BME280;54614;47.576;7.524;2023-09-08T10:17:18;98656.41;;;26.64;52.04
67818;BME280;54614;47.576;7.524;2023-09-08T10:19:46;98650.78;;;26.65;52.11
67818;BME280;54614;47.576;7.524;2023-09-08T10:22:20;98643.50;;;26.66;52.14
67818;BME280;54614;47.576;7.524;2023-09-08T10:24:50;98646.00;;;26.68;52.18
67818;BME280;54614;47.576;7.524;2023-09-08T10:27:20;98653.25;;;26.67;51.99
67818;BME280;54614;47.576;7.524;2023-09-08T10:29:48;98647.03;;;26.67;52.06
67818;BME280;54614;47.576;7.524;2023-09-08T10:32:15;98649.72;;;26.67;52.01
67818;BME280;54614;47.576;7.524;2023-09-08T10:34:44;98639.78;;;26.67;52.10
67818;BME280;54614;47.576;7.524;2023-09-08T10:37:25;98639.78;;;26.67;52.05
67818;BME280;54614;47.576;7.524;2023-09-08T10:39:55;98644.13;;;26.68;51.87
67818;BME280;54614;47.576;7.524;2023-09-08T10:42:25;98644.34;;;26.67;52.05
67818;BME280;54614;47.576;7.524;2023-09-08T10:45:14;98637.66;;;26.69;51.99
67818;BME280;54614;47.576;7.524;2023-09-08T10:50:26;98629.81;;;26.68;52.02
67818;BME280;54614;47.576;7.524;2023-09-08T10:53:18;98634.16;;;26.69;52.00
67818;BME280;54614;47.576;7.524;2023-09-08T10:55:50;98627.31;;;26.66;52.08
67818;BME280;54614;47.576;7.524;2023-09-08T10:58:37;98632.13;;;26.64;52.29
67818;BME280;54614;47.576;7.524;2023-09-08T11:01:05;98626.28;;;26.67;52.19
67818;BME280;54614;47.576;7.524;2023-09-08T11:06:03;98626.28;;;26.67;52.01
67818;BME280;54614;47.576;7.524;2023-09-08T11:08:30;98632.50;;;26.68;51.93
67818;BME280;54614;47.576;7.524;2023-09-08T11:10:56;98630.03;;;26.66;52.16
67818;BME280;54614;47.576;7.524;2023-09-08T11:13:22;98625.44;;;26.67;52.24
67818;BME280;54614;47.576;7.524;2023-09-08T11:15:52;98626.50;;;26.65;52.19
67818;BME280;54614;47.576;7.524;2023-09-08T11:18:26;98630.03;;;26.66;52.11
67818;BME280;54614;47.576;7.524;2023-09-08T11:20:53;98626.28;;;26.67;52.34
67818;BME280;54614;47.576;7.524;2023-09-08T11:23:20;98627.31;;;26.66;52.22
67818;BME280;54614;47.576;7.524;2023-09-08T11:25:46;98622.53;;;26.68;52.07
67818;BME280;54614;47.576;7.524;2023-09-08T11:28:12;98621.09;;;26.65;52.35
67818;BME280;54614;47.576;7.524;2023-09-08T11:30:39;98619.00;;;26.68;52.19
67818;BME280;54614;47.576;7.524;2023-09-08T11:33:15;98627.31;;;26.66;51.95
67818;BME280;54614;47.576;7.524;2023-09-08T11:35:40;98624.19;;;26.69;52.17
67818;BME280;54614;47.576;7.524;2023-09-08T11:38:10;98622.75;;;26.67;52.20
67818;BME280;54614;47.576;7.524;2023-09-08T11:40:37;98616.53;;;26.66;52.16
67818;BME280;54614;47.576;7.524;2023-09-08T11:43:04;98621.47;;;26.69;52.09
67818;BME280;54614;47.576;7.524;2023-09-08T11:45:34;98626.06;;;26.69;52.03
67818;BME280;54614;47.576;7.524;2023-09-08T11:48:00;98619.81;;;26.68;52.18
67818;BME280;54614;47.576;7.524;2023-09-08T11:50:26;98620.06;;;26.67;52.06
67818;BME280;54614;47.576;7.524;2023-09-08T11:52:54;98616.53;;;26.66;52.13
67818;BME280;54614;47.576;7.524;2023-09-08T11:55:21;98626.72;;;26.64;52.29
67818;BME280;54614;47.576;7.524;2023-09-08T11:57:52;98624.03;;;26.64;52.15
67818;BME280;54614;47.576;7.524;2023-09-08T12:00:21;98615.09;;;26.63;52.11
67818;BME280;54614;47.576;7.524;2023-09-08T12:02:49;98606.41;;;26.61;52.17
67818;BME280;54614;47.576;7.524;2023-09-08T12:05:29;98604.53;;;26.62;52.39
67818;BME280;54614;47.576;7.524;2023-09-08T12:07:56;98606.41;;;26.61;52.31
67818;BME280;54614;47.576;7.524;2023-09-08T12:10:25;98597.72;;;26.59;52.40
67818;BME280;54614;47.576;7.524;2023-09-08T12:12:55;98603.13;;;26.59;52.30
67818;BME280;54614;47.576;7.524;2023-09-08T12:15:34;98603.94;;;26.60;52.27
67818;BME280;54614;47.576;7.524;2023-09-08T12:18:03;98603.94;;;26.60;52.35
67818;BME280;54614;47.576;7.524;2023-09-08T12:20:30;98597.94;;;26.58;52.41
67818;BME280;54614;47.576;7.524;2023-09-08T12:23:06;98598.78;;;26.58;52.50
67818;BME280;54614;47.576;7.524;2023-09-08T12:25:33;98593.59;;;26.57;52.41
67818;BME280;54614;47.576;7.524;2023-09-08T12:28:00;98592.53;;;26.58;52.40
67818;BME280;54614;47.576;7.524;2023-09-08T12:30:28;98599.81;;;26.57;52.38
67818;BME280;54614;47.576;7.524;2023-09-08T12:33:01;98590.69;;;26.58;52.55
67818;BME280;54614;47.576;7.524;2023-09-08T12:35:27;98591.94;;;26.56;52.56
67818;BME280;54614;47.576;7.524;2023-09-08T12:37:58;98587.59;;;26.55;52.65
67818;BME280;54614;47.576;7.524;2023-09-08T12:40:26;98589.25;;;26.56;52.49
67818;BME280;54614;47.576;7.524;2023-09-08T12:42:52;98590.06;;;26.56;52.43
67818;BME280;54614;47.576;7.524;2023-09-08T12:45:20;98584.91;;;26.55;52.55
67818;BME280;54614;47.576;7.524;2023-09-08T12:47:46;98586.78;;;26.54;52.54
67818;BME280;54614;47.576;7.524;2023-09-08T12:50:12;98583.25;;;26.54;52.76
67818;BME280;54614;47.576;7.524;2023-09-08T12:52:39;98585.72;;;26.55;52.63
67818;BME280;54614;47.576;7.524;2023-09-08T12:55:06;98581.38;;;26.54;52.53
67818;BME280;54614;47.576;7.524;2023-09-08T12:57:32;98584.09;;;26.54;52.50
67818;BME280;54614;47.576;7.524;2023-09-08T12:59:58;98573.28;;;26.54;52.59
67818;BME280;54614;47.576;7.524;2023-09-08T13:02:24;98572.25;;;26.55;52.53
67818;BME280;54614;47.576;7.524;2023-09-08T13:04:50;98558.38;;;26.52;52.74
67818;BME280;54614;47.576;7.524;2023-09-08T13:07:17;98567.66;;;26.56;52.62